Guillo Perez — EA6341 — position and weather

sailwx.info

Track history (hours):
 
Tides and Currents Weather Stations Pressure Air Temp Water Temp Dewpoint Dewpoint Depression Visibility Wind Speed Wind Dir Waves Ship Positions

Guillo Perez

Last reported at 2018-Aug-17 10:59 UTC. Time now 2018-Aug-18 00:45 UTC.
Position N 37°53' W 000°35'.

Length 24 m.

Type: Fishing. MMSI: 224072690.

Date/timePositionNaut miles runAvg speedWind from/ knotsBaromVisibWave heightAir tempDewpointWater temp
2018-Aug-17 10:59N 37°53' W 000°35'2 3.3
2018-Aug-17 10:30N 37°52' W 000°34'3 3.3
2018-Aug-17 09:42N 37°49' W 000°34'3 3.2
2018-Aug-17 08:55N 37°47' W 000°33'4 4.5
2018-Aug-17 07:57N 37°42' W 000°34'11 3.2
2018-Aug-17 04:39N 37°52' W 000°30'211.5
2018-Aug-17 04:30N 37°54' W 000°31'5 0.3
2018-Aug-16 13:12N 37°58' W 000°35'7 3.5
2018-Aug-16 11:16N 37°51' W 000°34'7 3.1
2018-Aug-16 08:55N 37°45' W 000°30'0 0.7
2018-Aug-16 08:31N 37°45' W 000°29'0 0.5
2018-Aug-16 08:00N 37°45' W 000°30'10 0.2
2018-Aug-14 04:44N 37°55' W 000°26'6 0.2
2018-Aug-13 04:37N 37°53' W 000°33'1 7.3
2018-Aug-13 04:30N 37°53' W 000°33'  
2018-Aug-10 08:32N 37°45' W 000°26'0 5.0
2018-Aug-10 08:29N 37°44' W 000°26'1 2.4
2018-Aug-10 08:00N 37°45' W 000°26'3 0.1
2018-Aug-09 08:17N 37°43' W 000°27'1 2.9
2018-Aug-09 08:00N 37°43' W 000°27'1 1.9
2018-Aug-09 07:28N 37°44' W 000°26'10 3.5
2018-Aug-09 04:27N 37°55' W 000°26'  
Track history (hours):
 
Tides and Currents Weather Stations Pressure Air Temp Water Temp Dewpoint Dewpoint Depression Visibility Wind Speed Wind Dir Waves Ship Positions

Guillo Perez

Last reported at 2018-Aug-17 10:59 UTC. Time now 2018-Aug-18 00:45 UTC.
Position N 37°53' W 000°35'.

Length 24 m.

Type: Fishing. MMSI: 224072690.

Date/timePositionNaut miles runAvg speedWind from/ knotsBaromVisibWave heightAir tempDewpointWater temp
2018-Aug-17 10:59N 37°53' W 000°35'2 3.3
2018-Aug-17 10:30N 37°52' W 000°34'3 3.3
2018-Aug-17 09:42N 37°49' W 000°34'3 3.2
2018-Aug-17 08:55N 37°47' W 000°33'4 4.5
2018-Aug-17 07:57N 37°42' W 000°34'11 3.2
2018-Aug-17 04:39N 37°52' W 000°30'211.5
2018-Aug-17 04:30N 37°54' W 000°31'5 0.3
2018-Aug-16 13:12N 37°58' W 000°35'7 3.5
2018-Aug-16 11:16N 37°51' W 000°34'7 3.1
2018-Aug-16 08:55N 37°45' W 000°30'0 0.7
2018-Aug-16 08:31N 37°45' W 000°29'0 0.5
2018-Aug-16 08:00N 37°45' W 000°30'10 0.2
2018-Aug-14 04:44N 37°55' W 000°26'6 0.2
2018-Aug-13 04:37N 37°53' W 000°33'1 7.3
2018-Aug-13 04:30N 37°53' W 000°33'  
2018-Aug-10 08:32N 37°45' W 000°26'0 5.0
2018-Aug-10 08:29N 37°44' W 000°26'1 2.4
2018-Aug-10 08:00N 37°45' W 000°26'3 0.1
2018-Aug-09 08:17N 37°43' W 000°27'1 2.9
2018-Aug-09 08:00N 37°43' W 000°27'1 1.9
2018-Aug-09 07:28N 37°44' W 000°26'10 3.5
2018-Aug-09 04:27N 37°55' W 000°26'  

Dump ship's entire track history